createdAt,value
2022-11-25T00:01:33.475Z,23.80
2022-11-25T00:04:03.991Z,24.58
2022-11-25T00:06:34.533Z,25.48
2022-11-25T00:09:05.027Z,26.00
2022-11-25T00:11:35.995Z,25.38
2022-11-25T00:14:05.738Z,22.05
2022-11-25T00:16:34.065Z,24.95
2022-11-25T00:19:04.471Z,23.33
2022-11-25T00:21:35.105Z,25.33
2022-11-25T00:24:05.659Z,23.98
2022-11-25T00:26:35.867Z,24.92
2022-11-25T00:29:06.517Z,29.48
2022-11-25T00:31:36.860Z,30.92
2022-11-25T00:34:07.355Z,31.08
2022-11-25T00:36:38.100Z,30.08
2022-11-25T00:39:08.856Z,33.55
2022-11-25T00:41:54.503Z,32.65
2022-11-25T00:44:40.406Z,32.47
2022-11-25T00:47:12.092Z,30.67
2022-11-25T00:49:44.334Z,31.63
2022-11-25T00:52:17.240Z,31.75
2022-11-25T00:54:46.306Z,32.08
2022-11-25T00:57:15.171Z,35.33
2022-11-25T00:59:43.880Z,34.60
2022-11-25T01:02:12.960Z,34.00
2022-11-25T01:07:11.430Z,29.67
2022-11-25T01:09:39.963Z,31.40
2022-11-25T01:12:08.322Z,30.23
2022-11-25T01:14:37.281Z,25.85
2022-11-25T01:17:05.937Z,28.50
2022-11-25T01:19:34.638Z,29.02
2022-11-25T01:22:04.209Z,27.48
2022-11-25T01:24:36.355Z,25.90
2022-11-25T01:27:04.873Z,28.67
2022-11-25T01:29:33.487Z,26.75
2022-11-25T01:32:01.739Z,29.35
2022-11-25T01:34:32.626Z,26.73
2022-11-25T01:37:00.868Z,24.52
2022-11-25T01:39:33.074Z,22.40
2022-11-25T01:42:01.798Z,21.90
2022-11-25T01:44:33.294Z,23.40
2022-11-25T01:47:16.206Z,23.60
2022-11-25T01:49:48.411Z,22.70
2022-11-25T01:52:21.115Z,24.85
2022-11-25T01:54:56.581Z,24.60
2022-11-25T01:57:29.395Z,25.40
2022-11-25T02:00:00.716Z,22.27
2022-11-25T02:02:30.365Z,25.83
2022-11-25T02:04:59.827Z,24.35
2022-11-25T02:07:34.038Z,25.88
2022-11-25T02:10:06.940Z,24.38
2022-11-25T02:12:36.802Z,21.35
2022-11-25T02:15:07.370Z,23.02
2022-11-25T02:17:35.903Z,22.58
2022-11-25T02:20:08.241Z,20.92
2022-11-25T02:22:48.286Z,22.92
2022-11-25T02:25:21.958Z,22.23
2022-11-25T02:27:54.117Z,20.67
2022-11-25T02:30:22.792Z,22.00
2022-11-25T02:32:51.428Z,22.38
2022-11-25T02:35:29.759Z,23.08
2022-11-25T02:38:04.588Z,23.67
2022-11-25T02:40:37.680Z,22.27
2022-11-25T02:43:05.876Z,21.92
2022-11-25T02:45:53.740Z,23.30
2022-11-25T02:48:39.681Z,19.55
2022-11-25T02:51:11.284Z,21.80
2022-11-25T02:53:40.129Z,22.52
2022-11-25T02:56:11.362Z,22.73
2022-11-25T02:58:39.891Z,23.25
2022-11-25T03:01:09.325Z,23.02
2022-11-25T03:03:38.257Z,22.17
2022-11-25T03:06:07.514Z,22.42
2022-11-25T03:08:38.150Z,21.85
2022-11-25T03:11:07.180Z,20.83
2022-11-25T03:13:36.769Z,21.52
2022-11-25T03:16:05.781Z,20.48
2022-11-25T03:18:34.778Z,19.92
2022-11-25T03:21:03.406Z,23.25
2022-11-25T03:23:31.810Z,23.55
2022-11-25T03:26:00.332Z,23.80
2022-11-25T03:28:28.816Z,23.30
2022-11-25T03:31:32.762Z,23.88
2022-11-25T03:34:01.120Z,24.48
2022-11-25T03:36:29.626Z,22.33
2022-11-25T03:38:57.832Z,27.35
2022-11-25T03:41:26.486Z,21.95
2022-11-25T03:43:54.702Z,24.23
2022-11-25T03:46:23.389Z,23.37
2022-11-25T03:48:53.042Z,26.42
2022-11-25T03:51:21.740Z,25.05
2022-11-25T03:53:49.923Z,24.58
2022-11-25T03:56:18.439Z,25.27
2022-11-25T03:58:46.770Z,25.65
2022-11-25T04:01:15.453Z,24.98
2022-11-25T04:03:43.960Z,25.90
2022-11-25T04:06:13.958Z,25.57
2022-11-25T04:08:42.390Z,27.58
2022-11-25T04:11:10.860Z,27.30
2022-11-25T04:13:38.108Z,25.50
2022-11-25T04:16:06.819Z,26.42
2022-11-25T04:18:35.214Z,25.13
2022-11-25T04:21:03.663Z,23.13
2022-11-25T04:23:33.336Z,26.63
2022-11-25T04:26:01.843Z,27.00
2022-11-25T04:28:30.058Z,24.00
2022-11-25T04:30:58.621Z,23.77
2022-11-25T04:33:26.983Z,24.85
2022-11-25T04:35:55.456Z,26.00
2022-11-25T04:38:23.973Z,24.20
2022-11-25T04:40:53.995Z,28.17
2022-11-25T04:43:22.486Z,23.98
2022-11-25T04:46:13.132Z,23.98
2022-11-25T04:48:39.920Z,23.92
2022-11-25T04:51:08.998Z,24.25
2022-11-25T04:53:37.256Z,23.27
2022-11-25T04:56:07.960Z,24.73
2022-11-25T04:59:04.867Z,23.10
2022-11-25T05:01:33.985Z,25.50
2022-11-25T05:04:02.262Z,22.88
2022-11-25T05:06:30.812Z,22.37
2022-11-25T05:08:59.113Z,21.13
2022-11-25T05:11:28.995Z,21.93
2022-11-25T05:13:57.188Z,22.63
2022-11-25T05:16:26.290Z,22.42
2022-11-25T05:18:56.716Z,21.90
2022-11-25T05:21:25.295Z,21.40
2022-11-25T05:23:56.138Z,21.42
2022-11-25T05:26:24.853Z,20.55
2022-11-25T05:28:54.503Z,21.00
2022-11-25T05:31:23.201Z,22.33
2022-11-25T05:33:51.434Z,21.30
2022-11-25T05:36:20.196Z,18.50
2022-11-25T05:38:48.590Z,20.67
2022-11-25T05:41:17.419Z,19.17
2022-11-25T05:43:47.156Z,19.67
2022-11-25T05:46:17.757Z,18.33
2022-11-25T05:48:46.162Z,19.98
2022-11-25T05:51:15.773Z,17.63
2022-11-25T05:53:44.349Z,19.08
2022-11-25T05:56:12.928Z,20.70
2022-11-25T05:58:41.329Z,21.97
2022-11-25T06:01:11.353Z,19.60
2022-11-25T06:03:41.685Z,20.52
2022-11-25T06:06:11.557Z,20.65
2022-11-25T06:11:10.242Z,19.90
2022-11-25T06:13:38.694Z,20.08
2022-11-25T06:16:12.183Z,18.85
2022-11-25T06:18:42.345Z,19.73
2022-11-25T06:21:11.688Z,17.33
2022-11-25T06:23:40.206Z,18.48
2022-11-25T06:26:11.582Z,18.50
2022-11-25T06:28:39.732Z,19.67
2022-11-25T06:31:10.301Z,19.67
2022-11-25T06:33:38.937Z,18.42
2022-11-25T06:36:16.943Z,19.20
2022-11-25T06:38:45.792Z,19.60
2022-11-25T06:41:15.071Z,18.20
2022-11-25T06:43:43.423Z,20.25
2022-11-25T06:46:17.449Z,20.53
2022-11-25T06:48:49.596Z,20.33
2022-11-25T06:51:20.081Z,18.80
2022-11-25T06:53:48.318Z,20.25
2022-11-25T06:56:19.527Z,19.10
2022-11-25T06:58:48.995Z,20.42
2022-11-25T07:01:19.925Z,19.67
2022-11-25T07:03:51.159Z,20.70
2022-11-25T07:06:21.864Z,19.77
2022-11-25T07:08:50.231Z,18.85
2022-11-25T07:11:20.748Z,20.98
2022-11-25T07:13:52.219Z,18.83
2022-11-25T07:16:20.855Z,20.73
2022-11-25T07:18:49.702Z,19.98
2022-11-25T07:21:24.739Z,20.60
2022-11-25T07:23:54.413Z,20.10
2022-11-25T07:26:24.644Z,21.10
2022-11-25T07:28:54.578Z,21.58
2022-11-25T07:31:32.849Z,20.73
2022-11-25T07:34:03.057Z,21.13
2022-11-25T07:36:35.056Z,22.02
2022-11-25T07:39:06.550Z,21.70
2022-11-25T07:41:35.655Z,22.17
2022-11-25T07:44:07.697Z,25.02
2022-11-25T07:46:38.499Z,22.80
2022-11-25T07:49:10.124Z,23.88
2022-11-25T07:51:41.646Z,21.75
2022-11-25T07:54:13.129Z,19.92
2022-11-25T07:56:44.952Z,18.92
2022-11-25T07:59:15.602Z,17.70
2022-11-25T08:01:44.360Z,19.27
2022-11-25T08:04:19.689Z,17.10
2022-11-25T08:06:52.226Z,15.25
2022-11-25T08:09:23.031Z,16.20
2022-11-25T08:11:52.079Z,16.08
2022-11-25T08:14:20.727Z,16.77
2022-11-25T08:16:50.490Z,15.73
2022-11-25T08:19:19.730Z,17.10
2022-11-25T08:21:48.950Z,16.02
2022-11-25T08:24:21.994Z,16.52
2022-11-25T08:26:51.473Z,16.58
2022-11-25T08:29:20.459Z,15.73
2022-11-25T08:31:49.873Z,16.15
2022-11-25T08:34:21.067Z,14.68
2022-11-25T08:36:49.682Z,17.15
2022-11-25T08:39:51.632Z,17.75
2022-11-25T08:42:09.852Z,17.80
2022-11-25T08:44:38.354Z,15.73
2022-11-25T08:47:06.889Z,16.70
2022-11-25T08:49:40.798Z,14.32
2022-11-25T08:52:11.644Z,14.50
2022-11-25T08:54:41.489Z,13.90
2022-11-25T08:57:10.066Z,12.57
2022-11-25T08:59:39.235Z,12.52
2022-11-25T09:02:09.910Z,11.57
2022-11-25T09:04:38.139Z,13.18
2022-11-25T09:07:06.594Z,13.13
2022-11-25T09:09:35.223Z,12.73
2022-11-25T09:12:06.064Z,12.85
2022-11-25T09:14:34.203Z,11.68
2022-11-25T09:17:04.086Z,9.63
2022-11-25T09:19:32.214Z,9.57
2022-11-25T09:22:00.733Z,8.40
2022-11-25T09:24:29.350Z,8.60
2022-11-25T09:26:57.845Z,8.88
2022-11-25T09:29:27.895Z,7.78
2022-11-25T09:31:56.634Z,7.63
2022-11-25T09:34:24.888Z,6.90
2022-11-25T09:36:53.834Z,7.75
2022-11-25T09:39:22.214Z,9.17
2022-11-25T09:42:23.073Z,8.60
2022-11-25T09:45:28.566Z,8.43
2022-11-25T09:48:23.779Z,8.43
2022-11-25T09:51:17.346Z,6.97
2022-11-25T09:53:51.511Z,6.75
2022-11-25T09:56:31.042Z,8.40
2022-11-25T09:59:04.012Z,7.05
2022-11-25T10:01:40.386Z,7.65
2022-11-25T10:04:14.747Z,7.60
2022-11-25T10:06:55.065Z,7.85
2022-11-25T10:09:27.413Z,7.90
2022-11-25T10:11:59.570Z,8.30
2022-11-25T10:14:33.834Z,7.88
2022-11-25T10:17:09.848Z,9.85
2022-11-25T10:19:48.238Z,9.63
2022-11-25T10:22:25.906Z,9.70
2022-11-25T10:24:58.303Z,9.13
2022-11-25T10:27:32.450Z,9.05
2022-11-25T10:30:09.021Z,9.20
2022-11-25T10:32:43.369Z,10.57
2022-11-25T10:35:25.063Z,11.45
2022-11-25T10:37:55.685Z,11.05
2022-11-25T10:40:24.127Z,11.43
2022-11-25T10:42:52.445Z,13.05
2022-11-25T10:45:33.422Z,13.23
2022-11-25T10:48:26.742Z,14.05
2022-11-25T10:51:07.970Z,13.85
2022-11-25T10:53:36.435Z,15.05
2022-11-25T10:56:11.854Z,13.85
2022-11-25T10:58:42.969Z,14.23
2022-11-25T11:01:17.876Z,13.65
2022-11-25T11:03:52.884Z,12.05
2022-11-25T11:06:33.815Z,12.13
2022-11-25T11:09:02.152Z,14.13
2022-11-25T11:11:31.820Z,12.27
2022-11-25T11:16:33.309Z,12.98
2022-11-25T11:19:03.168Z,12.15
2022-11-25T11:21:34.826Z,12.70
2022-11-25T11:24:05.732Z,12.30
2022-11-25T11:26:36.414Z,12.80
2022-11-25T11:29:11.202Z,12.73
2022-11-25T11:31:49.363Z,11.98
2022-11-25T11:34:38.859Z,13.85
2022-11-25T11:37:23.925Z,12.45
2022-11-25T11:40:04.359Z,12.52
2022-11-25T11:42:44.139Z,12.82
2022-11-25T11:45:29.191Z,12.57
2022-11-25T11:48:14.526Z,12.20
2022-11-25T11:50:48.867Z,12.38
2022-11-25T11:53:23.942Z,12.25
2022-11-25T11:56:33.117Z,12.93
2022-11-25T11:59:00.286Z,12.90
2022-11-25T12:01:47.745Z,10.05
2022-11-25T12:04:21.118Z,13.18
2022-11-25T12:07:01.543Z,12.02
2022-11-25T12:09:33.534Z,12.38
2022-11-25T12:12:06.338Z,13.23
2022-11-25T12:14:41.940Z,13.88
2022-11-25T12:17:18.499Z,13.77
2022-11-25T12:19:56.658Z,13.48
2022-11-25T12:22:33.673Z,12.73
2022-11-25T12:25:10.022Z,14.15
2022-11-25T12:27:42.063Z,12.07
2022-11-25T12:30:14.579Z,14.25
2022-11-25T12:32:54.643Z,12.75
2022-11-25T12:35:32.501Z,12.73
2022-11-25T12:38:10.970Z,13.05
2022-11-25T12:40:46.877Z,13.20
2022-11-25T12:43:27.307Z,11.63
2022-11-25T12:46:18.029Z,11.32
2022-11-25T12:48:46.650Z,10.20
2022-11-25T12:51:26.269Z,11.70
2022-11-25T12:54:06.934Z,12.38
2022-11-25T12:56:57.245Z,12.40
2022-11-25T12:59:47.785Z,12.32
2022-11-25T13:02:45.744Z,11.38
2022-11-25T13:08:27.773Z,12.50
2022-11-25T13:11:23.509Z,12.45
2022-11-25T13:14:02.346Z,13.15
2022-11-25T13:16:33.153Z,11.98
2022-11-25T13:19:02.653Z,12.93
2022-11-25T13:21:40.338Z,12.52
2022-11-25T13:24:29.487Z,13.50
2022-11-25T13:27:02.579Z,12.37
2022-11-25T13:30:05.216Z,12.38
2022-11-25T13:32:46.385Z,13.23
2022-11-25T13:35:59.520Z,13.18
2022-11-25T13:38:40.223Z,13.13
2022-11-25T13:42:21.540Z,11.73
2022-11-25T13:45:24.233Z,12.25
2022-11-25T13:47:56.588Z,14.38
2022-11-25T13:50:41.981Z,13.32
2022-11-25T13:53:30.100Z,12.88
2022-11-25T13:56:14.296Z,13.93
2022-11-25T13:59:29.554Z,13.75
2022-11-25T14:02:36.999Z,13.38
2022-11-25T14:05:20.869Z,14.38
2022-11-25T14:08:00.649Z,14.50
2022-11-25T14:10:46.071Z,14.52
2022-11-25T14:13:43.257Z,14.07
2022-11-25T14:16:36.742Z,14.52
2022-11-25T14:19:52.839Z,13.43
2022-11-25T14:22:52.944Z,12.05
2022-11-25T14:25:29.178Z,15.57
2022-11-25T14:28:08.864Z,13.05
2022-11-25T14:30:51.844Z,13.65
2022-11-25T14:33:27.187Z,14.45
2022-11-25T14:36:01.927Z,15.85
2022-11-25T14:38:39.224Z,15.30
2022-11-25T14:41:12.569Z,16.95
2022-11-25T14:43:44.443Z,16.10
2022-11-25T14:46:15.892Z,15.50
2022-11-25T14:48:45.317Z,14.60
2022-11-25T14:51:15.575Z,16.52
2022-11-25T14:53:48.427Z,17.25
2022-11-25T14:56:23.337Z,18.00
2022-11-25T15:01:56.409Z,16.67
2022-11-25T15:04:27.082Z,18.48
2022-11-25T15:07:00.963Z,17.55
2022-11-25T15:09:34.849Z,18.08
2022-11-25T15:12:05.026Z,18.42
2022-11-25T15:14:40.756Z,21.23
2022-11-25T15:17:10.140Z,18.50
2022-11-25T15:19:39.374Z,17.10
2022-11-25T15:22:24.736Z,16.65
2022-11-25T15:24:56.482Z,19.42
2022-11-25T15:27:28.849Z,18.48
2022-11-25T15:29:59.002Z,20.00
2022-11-25T15:32:29.614Z,17.70
2022-11-25T15:35:01.072Z,15.82
2022-11-25T15:37:31.184Z,18.23
2022-11-25T15:40:36.595Z,18.13
2022-11-25T15:43:08.738Z,16.77
2022-11-25T15:45:45.464Z,20.95
2022-11-25T15:48:19.168Z,18.92
2022-11-25T15:50:47.771Z,21.00
2022-11-25T15:53:32.943Z,22.10
2022-11-25T15:56:04.564Z,22.48
2022-11-25T16:01:07.285Z,17.95
2022-11-25T16:03:36.191Z,16.98
2022-11-25T16:06:21.561Z,17.13
2022-11-25T16:08:56.231Z,17.55
2022-11-25T16:11:29.194Z,19.48
2022-11-25T16:14:27.107Z,18.60
2022-11-25T16:17:05.625Z,19.90
2022-11-25T16:19:40.279Z,18.98
2022-11-25T16:22:14.719Z,20.48
2022-11-25T16:24:51.901Z,21.95
2022-11-25T16:29:57.777Z,24.10
2022-11-25T16:32:29.915Z,25.20
2022-11-25T16:35:11.466Z,25.25
2022-11-25T16:37:41.797Z,25.70
2022-11-25T16:40:16.288Z,30.83
2022-11-25T16:42:48.856Z,49.10
2022-11-25T16:45:21.222Z,33.58
2022-11-25T16:47:49.858Z,30.75
2022-11-25T16:50:19.406Z,28.42
2022-11-25T16:52:48.529Z,27.85
2022-11-25T16:55:18.682Z,27.42
2022-11-25T16:57:47.877Z,27.35
2022-11-25T17:00:19.464Z,26.98
2022-11-25T17:02:48.118Z,26.30
2022-11-25T17:05:19.554Z,26.55
2022-11-25T17:07:50.344Z,27.60
2022-11-25T17:10:19.670Z,27.05
2022-11-25T17:12:49.666Z,26.92
2022-11-25T17:15:22.591Z,28.52
2022-11-25T17:17:52.134Z,28.42
2022-11-25T17:20:23.940Z,29.10
2022-11-25T17:22:53.766Z,29.70
2022-11-25T17:30:24.528Z,24.40
2022-11-25T17:32:58.786Z,23.98
2022-11-25T17:35:27.420Z,27.52
2022-11-25T17:37:59.393Z,28.15
2022-11-25T17:40:27.917Z,28.00
2022-11-25T17:42:57.047Z,25.58
2022-11-25T17:45:26.715Z,27.10
2022-11-25T17:47:55.668Z,27.00
2022-11-25T17:50:26.451Z,26.10
2022-11-25T17:52:55.486Z,25.63
2022-11-25T17:55:24.056Z,25.67
2022-11-25T17:57:53.925Z,25.50
2022-11-25T18:00:25.041Z,26.73
2022-11-25T18:02:55.231Z,27.65
2022-11-25T18:05:27.013Z,34.08
2022-11-25T18:11:32.090Z,26.40
2022-11-25T18:14:53.091Z,26.58
2022-11-25T18:20:30.113Z,25.35
2022-11-25T18:22:58.801Z,27.92
2022-11-25T18:25:30.730Z,27.02
2022-11-25T18:28:02.985Z,29.00
2022-11-25T18:30:36.352Z,26.20
2022-11-25T18:33:15.163Z,28.13
2022-11-25T18:36:10.388Z,28.98
2022-11-25T18:38:39.248Z,27.80
2022-11-25T18:41:11.631Z,25.45
2022-11-25T18:43:40.429Z,24.88
2022-11-25T18:46:17.946Z,28.25
2022-11-25T18:48:53.421Z,31.25
2022-11-25T18:51:25.584Z,28.27
2022-11-25T18:53:54.295Z,29.35
2022-11-25T18:56:25.456Z,28.90
2022-11-25T18:59:01.734Z,27.10
2022-11-25T19:01:31.009Z,33.38
2022-11-25T19:04:03.202Z,29.85
2022-11-25T19:06:36.586Z,27.42
2022-11-25T19:09:07.094Z,31.23
2022-11-25T19:11:40.635Z,32.65
2022-11-25T19:14:17.326Z,32.45
2022-11-25T19:16:47.738Z,37.25
2022-11-25T19:19:18.280Z,36.20
2022-11-25T19:21:49.993Z,33.95
2022-11-25T19:24:18.552Z,35.95
2022-11-25T19:26:52.714Z,34.10
2022-11-25T19:29:24.241Z,34.72
2022-11-25T19:31:54.427Z,29.63
2022-11-25T19:34:28.881Z,26.35
2022-11-25T19:36:59.339Z,25.27
2022-11-25T19:39:28.948Z,24.67
2022-11-25T19:42:00.165Z,26.17
2022-11-25T19:44:32.547Z,24.35
2022-11-25T19:47:15.333Z,25.67
2022-11-25T19:49:44.969Z,23.00
2022-11-25T19:54:45.712Z,22.92
2022-11-25T19:57:18.337Z,22.42
2022-11-25T19:59:46.635Z,23.30
2022-11-25T20:02:18.923Z,24.65
2022-11-25T20:04:50.798Z,33.35
2022-11-25T20:07:24.283Z,26.77
2022-11-25T20:09:56.870Z,35.22
2022-11-25T20:12:31.494Z,29.52
2022-11-25T20:14:59.782Z,37.13
2022-11-25T20:17:32.046Z,40.17
2022-11-25T20:20:04.255Z,37.90
2022-11-25T20:22:37.336Z,37.30
2022-11-25T20:25:10.822Z,38.53
2022-11-25T20:27:39.556Z,38.65
2022-11-25T20:30:24.552Z,39.05
2022-11-25T20:32:56.467Z,40.17
2022-11-25T20:37:58.553Z,47.10
2022-11-25T20:40:33.576Z,53.10
2022-11-25T20:43:05.365Z,41.38
2022-11-25T20:45:40.492Z,39.20
2022-11-25T20:48:11.947Z,37.97
2022-11-25T20:50:40.560Z,41.55
2022-11-25T20:53:16.005Z,44.15
2022-11-25T20:55:45.813Z,43.03
2022-11-25T20:58:22.527Z,47.70
2022-11-25T21:00:55.704Z,42.45
2022-11-25T21:03:29.023Z,32.65
2022-11-25T21:05:58.826Z,35.13
2022-11-25T21:08:31.089Z,32.58
2022-11-25T21:11:00.414Z,32.30
2022-11-25T21:13:36.627Z,34.05
2022-11-25T21:16:07.587Z,32.80
2022-11-25T21:18:36.443Z,30.58
2022-11-25T21:21:05.276Z,33.03
2022-11-25T21:23:38.996Z,30.35
2022-11-25T21:26:12.251Z,28.42
2022-11-25T21:28:47.464Z,31.77
2022-11-25T21:31:18.098Z,35.17
2022-11-25T21:33:47.993Z,41.60
2022-11-25T21:36:20.266Z,33.45
2022-11-25T21:38:52.622Z,30.50
2022-11-25T21:41:24.280Z,33.80
2022-11-25T21:43:53.046Z,34.28
2022-11-25T21:46:27.902Z,38.95
2022-11-25T21:48:58.872Z,38.33
2022-11-25T21:51:27.344Z,34.17
2022-11-25T21:53:57.481Z,36.97
2022-11-25T21:56:29.711Z,37.90
2022-11-25T21:59:03.951Z,33.08
2022-11-25T22:01:32.796Z,38.65
2022-11-25T22:04:01.724Z,36.97
2022-11-25T22:06:35.055Z,38.20
2022-11-25T22:09:10.710Z,36.13
2022-11-25T22:11:43.422Z,35.65
2022-11-25T22:14:17.047Z,36.13
2022-11-25T22:16:45.702Z,37.97
2022-11-25T22:19:20.787Z,37.92
2022-11-25T22:21:50.971Z,34.65
2022-11-25T22:24:24.266Z,33.97
2022-11-25T22:26:59.172Z,40.42
2022-11-25T22:29:34.316Z,35.30
2022-11-25T22:32:05.023Z,36.92
2022-11-25T22:34:39.685Z,38.65
2022-11-25T22:37:17.229Z,42.55
2022-11-25T22:39:49.705Z,33.88
2022-11-25T22:42:25.970Z,37.97
2022-11-25T22:44:57.520Z,37.80
2022-11-25T22:47:30.505Z,36.83
2022-11-25T22:50:05.944Z,31.35
2022-11-25T22:52:36.409Z,29.45
2022-11-25T22:55:17.956Z,27.02
2022-11-25T22:57:47.043Z,29.25
2022-11-25T23:00:23.388Z,34.97
2022-11-25T23:02:53.395Z,31.35
2022-11-25T23:05:30.734Z,31.83
2022-11-25T23:08:01.266Z,29.85
2022-11-25T23:10:33.045Z,30.15
2022-11-25T23:13:01.437Z,32.95
2022-11-25T23:15:30.788Z,31.17
2022-11-25T23:18:00.772Z,35.10
2022-11-25T23:20:34.602Z,27.10
2022-11-25T23:23:13.526Z,30.88
2022-11-25T23:25:48.164Z,29.48
2022-11-25T23:28:17.117Z,27.95
2022-11-25T23:30:50.500Z,30.25
2022-11-25T23:33:29.699Z,30.77
2022-11-25T23:36:06.147Z,26.70
2022-11-25T23:38:48.021Z,30.25
2022-11-25T23:41:23.746Z,25.30
2022-11-25T23:43:53.481Z,25.30
2022-11-25T23:46:27.978Z,29.42
2022-11-25T23:48:59.231Z,30.85
2022-11-25T23:51:29.882Z,33.25
2022-11-25T23:54:02.125Z,31.58
2022-11-25T23:56:34.721Z,31.48
2022-11-25T23:59:02.991Z,34.70
